Time;durP1;ratioP1;P1;durP2;ratioP2;P2;SDS_P1;SDS_P2;PMS_P1;PMS_P2;Temp;Humidity;BMP_temperature;BMP_pressure;BME280_temperature;BME280_humidity;BME280_pressure;Samples;Min_cycle;Max_cycle;Signal;HPM_P1;HPM_P2
2023/04/17 00:01:46;;;;;;;3.17;2.10;;;;;;;;;;5104561;27;86934;-58
2023/04/17 00:04:17;;;;;;;1.77;1.67;;;;;;;;;;5111053;27;86240;-58
2023/04/17 00:06:45;;;;;;;2.17;1.80;;;;;;;;;;5124247;27;89047;-59
2023/04/17 00:09:14;;;;;;;4.97;1.90;;;;;;;;;;5117711;27;88854;-58
2023/04/17 00:11:42;;;;;;;3.17;2.27;;;;;;;;;;5124370;27;87926;-59
2023/04/17 00:14:10;;;;;;;4.63;2.27;;;;;;;;;;5123436;27;88335;-59
2023/04/17 00:16:38;;;;;;;1.90;1.73;;;;;;;;;;5124749;27;89091;-59
2023/04/17 00:19:07;;;;;;;3.50;1.83;;;;;;;;;;5123281;27;88837;-59
2023/04/17 00:21:36;;;;;;;4.07;2.27;;;;;;;;;;5123435;27;87350;-59
2023/04/17 00:24:05;;;;;;;4.00;1.83;;;;;;;;;;5114821;27;87014;-58
2023/04/17 00:26:33;;;;;;;2.83;1.80;;;;;;;;;;5124551;27;89091;-59
2023/04/17 00:29:02;;;;;;;5.27;1.50;;;;;;;;;;5123256;27;88497;-58
2023/04/17 00:31:30;;;;;;;4.93;2.23;;;;;;;;;;5104198;27;87051;-58
2023/04/17 00:34:00;;;;;;;3.37;2.23;;;;;;;;;;5103811;27;88029;-58
2023/04/17 00:36:30;;;;;;;2.53;1.97;;;;;;;;;;5113972;27;90263;-58
2023/04/17 00:39:00;;;;;;;2.93;2.00;;;;;;;;;;5111766;27;88687;-58
2023/04/17 00:41:28;;;;;;;5.87;1.93;;;;;;;;;;5125018;27;86823;-58
2023/04/17 00:43:56;;;;;;;3.63;2.30;;;;;;;;;;5124096;27;86887;-59
2023/04/17 00:46:25;;;;;;;3.97;1.60;;;;;;;;;;5104374;27;89022;-58
2023/04/17 00:48:53;;;;;;;2.97;2.20;;;;;;;;;;5103313;27;88988;-58
2023/04/17 00:51:21;;;;;;;2.20;1.40;;;;;;;;;;5121213;27;88270;-58
2023/04/17 00:53:50;;;;;;;2.67;1.63;;;;;;;;;;5122881;27;86263;-58
2023/04/17 00:56:19;;;;;;;3.97;2.07;;;;;;;;;;5106617;27;89136;-58
2023/04/17 00:58:48;;;;;;;3.30;2.47;;;;;;;;;;5118499;27;88810;-58
2023/04/17 01:01:16;;;;;;;3.23;1.67;;;;;;;;;;5107767;27;88002;-58
2023/04/17 01:03:45;;;;;;;2.73;2.00;;;;;;;;;;5105704;27;86857;-58
2023/04/17 01:06:13;;;;;;;3.57;2.23;;;;;;;;;;5107794;27;89106;-58
2023/04/17 01:08:42;;;;;;;5.43;2.47;;;;;;;;;;5104195;27;88835;-58
2023/04/17 01:11:10;;;;;;;4.17;1.73;;;;;;;;;;5109625;27;87072;-58
2023/04/17 01:13:46;;;;;;;2.77;2.10;;;;;;;;;;5102838;27;86960;-58
2023/04/17 01:16:14;;;;;;;3.73;2.40;;;;;;;;;;5116356;27;89119;-60
2023/04/17 01:18:42;;;;;;;7.33;2.13;;;;;;;;;;5115557;27;88950;-60
2023/04/17 01:21:11;;;;;;;2.97;2.20;;;;;;;;;;5115716;27;87102;-60
2023/04/17 01:23:43;;;;;;;2.80;2.10;;;;;;;;;;5122615;27;87081;-60
2023/04/17 01:26:13;;;;;;;3.27;2.03;;;;;;;;;;5114297;27;89750;-60
2023/04/17 01:28:43;;;;;;;2.43;1.77;;;;;;;;;;5123746;27;89975;-58
2023/04/17 01:31:15;;;;;;;4.37;1.93;;;;;;;;;;5112152;27;86912;-58
2023/04/17 01:33:43;;;;;;;3.67;2.13;;;;;;;;;;5116367;27;87051;-59
2023/04/17 01:36:12;;;;;;;3.67;1.80;;;;;;;;;;5111794;27;88767;-58
2023/04/17 01:38:40;;;;;;;2.57;1.87;;;;;;;;;;5102603;27;89242;-58
2023/04/17 01:41:09;;;;;;;3.37;1.60;;;;;;;;;;5112308;27;86972;-61
2023/04/17 01:43:41;;;;;;;2.20;1.30;;;;;;;;;;5125031;27;86067;-59
2023/04/17 01:46:10;;;;;;;3.07;1.70;;;;;;;;;;5121743;27;87957;-58
2023/04/17 01:48:39;;;;;;;2.43;1.60;;;;;;;;;;5123629;27;87763;-58
2023/04/17 01:51:07;;;;;;;2.93;1.93;;;;;;;;;;5115183;27;87831;-58
2023/04/17 01:53:36;;;;;;;3.53;2.30;;;;;;;;;;5104462;27;87061;-58
2023/04/17 01:56:04;;;;;;;2.80;1.63;;;;;;;;;;5115972;27;89116;-59
2023/04/17 01:58:33;;;;;;;3.17;1.53;;;;;;;;;;5106384;27;88633;-59
2023/04/17 02:01:01;;;;;;;1.83;1.60;;;;;;;;;;5112388;27;86962;-59
2023/04/17 02:03:31;;;;;;;3.33;1.90;;;;;;;;;;5106587;27;86981;-59
2023/04/17 02:05:59;;;;;;;1.93;1.60;;;;;;;;;;5109185;27;89369;-59
2023/04/17 02:08:28;;;;;;;2.33;1.53;;;;;;;;;;5105901;27;88785;-59
2023/04/17 02:10:56;;;;;;;1.73;1.63;;;;;;;;;;5122040;27;87147;-59
2023/04/17 02:13:25;;;;;;;3.07;1.50;;;;;;;;;;5106282;27;87056;-59
2023/04/17 02:15:53;;;;;;;2.57;1.93;;;;;;;;;;5119069;27;90205;-59
2023/04/17 02:18:22;;;;;;;2.10;1.60;;;;;;;;;;5105925;27;89842;-59
2023/04/17 02:20:51;;;;;;;2.77;1.70;;;;;;;;;;5106761;27;86917;-59
2023/04/17 02:23:20;;;;;;;2.17;1.53;;;;;;;;;;5127265;27;86879;-59
2023/04/17 02:25:48;;;;;;;2.90;1.63;;;;;;;;;;5110167;27;89214;-59
2023/04/17 02:28:16;;;;;;;5.33;2.30;;;;;;;;;;5123902;27;88848;-58
2023/04/17 02:30:45;;;;;;;2.57;2.00;;;;;;;;;;5105825;27;86751;-58
2023/04/17 02:33:13;;;;;;;5.30;1.97;;;;;;;;;;5126107;27;86343;-59
2023/04/17 02:35:41;;;;;;;1.60;1.50;;;;;;;;;;5125738;27;89225;-59
2023/04/17 02:38:12;;;;;;;2.80;1.73;;;;;;;;;;5106827;27;87042;-59
2023/04/17 02:40:40;;;;;;;3.23;1.67;;;;;;;;;;5125245;27;87795;-59
2023/04/17 02:43:09;;;;;;;3.00;1.77;;;;;;;;;;5124917;27;87010;-58
2023/04/17 02:45:37;;;;;;;2.97;1.93;;;;;;;;;;5126373;27;89207;-59
2023/04/17 02:48:05;;;;;;;1.73;1.03;;;;;;;;;;5108805;27;88943;-59
2023/04/17 02:50:34;;;;;;;2.93;1.87;;;;;;;;;;5105857;27;87047;-59
2023/04/17 02:53:02;;;;;;;2.00;1.63;;;;;;;;;;5120477;27;86918;-58
2023/04/17 02:55:32;;;;;;;2.33;1.60;;;;;;;;;;5108493;27;89162;-59
2023/04/17 02:58:00;;;;;;;2.53;1.50;;;;;;;;;;5111039;27;88747;-59
2023/04/17 03:00:29;;;;;;;4.20;1.50;;;;;;;;;;5105413;27;86996;-59
2023/04/17 03:02:57;;;;;;;1.93;1.73;;;;;;;;;;5118600;27;87093;-59
2023/04/17 03:05:29;;;;;;;2.53;1.97;;;;;;;;;;5124801;27;89977;-59
2023/04/17 03:07:58;;;;;;;1.87;1.30;;;;;;;;;;5111636;27;89823;-59
2023/04/17 03:10:26;;;;;;;2.43;1.43;;;;;;;;;;5116561;27;87092;-58
2023/04/17 03:12:56;;;;;;;1.60;1.40;;;;;;;;;;5117016;27;86907;-59
2023/04/17 03:15:24;;;;;;;2.10;1.60;;;;;;;;;;5125841;27;89188;-59
2023/04/17 03:17:52;;;;;;;2.10;1.87;;;;;;;;;;5114152;27;88387;-59
2023/04/17 03:20:21;;;;;;;3.17;1.97;;;;;;;;;;5105139;27;86845;-59
2023/04/17 03:22:49;;;;;;;2.67;1.63;;;;;;;;;;5115429;27;87470;-58
2023/04/17 03:25:17;;;;;;;2.00;1.80;;;;;;;;;;5111618;27;88935;-58
2023/04/17 03:27:45;;;;;;;2.13;1.60;;;;;;;;;;5113910;27;88901;-58
2023/04/17 03:30:15;;;;;;;2.00;1.43;;;;;;;;;;5110851;27;87799;-59
2023/04/17 03:32:43;;;;;;;2.93;1.57;;;;;;;;;;5113380;27;87174;-58
2023/04/17 03:35:12;;;;;;;1.90;1.30;;;;;;;;;;5125650;27;89268;-58
2023/04/17 03:37:40;;;;;;;1.83;1.30;;;;;;;;;;5123991;27;87806;-58
2023/04/17 03:40:09;;;;;;;1.80;1.57;;;;;;;;;;5112758;27;87287;-58
2023/04/17 03:42:37;;;;;;;3.50;1.97;;;;;;;;;;5110144;27;87529;-58
2023/04/17 03:45:06;;;;;;;4.30;2.07;;;;;;;;;;5125135;27;89040;-60
2023/04/17 03:47:35;;;;;;;3.20;1.80;;;;;;;;;;5120822;27;88898;-58
2023/04/17 03:50:04;;;;;;;1.43;1.33;;;;;;;;;;5115997;27;87072;-58
2023/04/17 03:52:32;;;;;;;1.47;1.37;;;;;;;;;;5117830;27;87008;-58
2023/04/17 03:55:01;;;;;;;1.63;1.53;;;;;;;;;;5115197;27;89789;-58
2023/04/17 03:57:29;;;;;;;2.20;1.70;;;;;;;;;;5107043;27;89600;-58
2023/04/17 03:59:57;;;;;;;4.67;2.10;;;;;;;;;;5124892;27;87036;-58
2023/04/17 04:02:25;;;;;;;2.00;1.47;;;;;;;;;;5123405;27;87052;-58
2023/04/17 04:04:55;;;;;;;1.90;1.70;;;;;;;;;;5103415;27;89091;-60
2023/04/17 04:07:24;;;;;;;2.60;1.60;;;;;;;;;;5119783;27;88891;-59
2023/04/17 04:09:52;;;;;;;4.17;1.80;;;;;;;;;;5113787;27;87050;-59
2023/04/17 04:12:21;;;;;;;1.90;1.70;;;;;;;;;;5125787;27;86143;-59
2023/04/17 04:14:50;;;;;;;2.13;1.90;;;;;;;;;;5103947;27;89078;-58
2023/04/17 04:17:18;;;;;;;3.87;1.77;;;;;;;;;;5103617;27;88830;-59
2023/04/17 04:19:46;;;;;;;1.50;1.40;;;;;;;;;;5113754;27;89618;-59
2023/04/17 04:22:17;;;;;;;2.10;1.87;;;;;;;;;;5109089;27;86843;-58
2023/04/17 04:24:46;;;;;;;2.20;1.77;;;;;;;;;;5123411;27;89130;-59
2023/04/17 04:27:16;;;;;;;2.17;1.40;;;;;;;;;;5124734;27;88875;-59
2023/04/17 04:29:48;;;;;;;1.87;1.73;;;;;;;;;;5113313;27;86986;-58
2023/04/17 04:32:16;;;;;;;1.83;1.50;;;;;;;;;;5124634;27;87093;-59
2023/04/17 04:34:45;;;;;;;1.70;1.43;;;;;;;;;;5106449;27;89147;-59
2023/04/17 04:37:14;;;;;;;2.03;1.70;;;;;;;;;;5104394;27;88690;-59
2023/04/17 04:39:46;;;;;;;2.30;1.53;;;;;;;;;;5120191;27;87165;-59
2023/04/17 04:42:20;;;;;;;2.13;1.83;;;;;;;;;;5124652;27;86998;-59
2023/04/17 04:44:49;;;;;;;1.63;1.53;;;;;;;;;;5107113;27;90093;-58
2023/04/17 04:47:18;;;;;;;1.57;1.47;;;;;;;;;;5103465;27;89816;-58
2023/04/17 04:49:47;;;;;;;2.50;1.43;;;;;;;;;;5104763;27;87064;-60
2023/04/17 04:52:15;;;;;;;1.53;1.43;;;;;;;;;;5105430;27;86945;-60
2023/04/17 04:54:45;;;;;;;1.17;1.07;;;;;;;;;;5110188;27;88948;-58
2023/04/17 04:57:13;;;;;;;1.90;1.70;;;;;;;;;;5103025;27;89045;-58
2023/04/17 04:59:41;;;;;;;1.47;1.37;;;;;;;;;;5116307;27;87893;-57
2023/04/17 05:02:09;;;;;;;1.83;1.53;;;;;;;;;;5125103;27;86082;-60
2023/04/17 05:04:38;;;;;;;1.83;1.60;;;;;;;;;;5112062;27;89035;-60
2023/04/17 05:07:06;;;;;;;2.77;1.77;;;;;;;;;;5109831;27;89198;-60
2023/04/17 05:09:35;;;;;;;1.80;1.47;;;;;;;;;;5111674;27;87998;-60
2023/04/17 05:12:05;;;;;;;1.97;1.20;;;;;;;;;;5103610;27;87132;-60
2023/04/17 05:14:33;;;;;;;2.87;1.57;;;;;;;;;;5113595;27;89210;-60
2023/04/17 05:17:01;;;;;;;2.47;1.67;;;;;;;;;;5123823;27;88952;-60
2023/04/17 05:19:30;;;;;;;1.50;1.10;;;;;;;;;;5113140;27;87059;-60
2023/04/17 05:21:58;;;;;;;1.87;1.40;;;;;;;;;;5106906;27;87093;-61
2023/04/17 05:24:26;;;;;;;2.50;1.67;;;;;;;;;;5115287;27;89197;-60
2023/04/17 05:26:55;;;;;;;2.20;1.47;;;;;;;;;;5103460;27;88803;-60
2023/04/17 05:29:26;;;;;;;2.67;1.27;;;;;;;;;;5110259;27;87149;-60
2023/04/17 05:31:54;;;;;;;1.20;1.10;;;;;;;;;;5127180;27;86923;-60
2023/04/17 05:34:22;;;;;;;1.83;1.30;;;;;;;;;;5120156;27;90105;-60
2023/04/17 05:36:51;;;;;;;2.23;1.53;;;;;;;;;;5117735;27;90156;-58
2023/04/17 05:39:19;;;;;;;1.80;1.50;;;;;;;;;;5121601;27;86980;-58
2023/04/17 05:41:48;;;;;;;4.20;1.37;;;;;;;;;;5106598;27;87026;-58
2023/04/17 05:44:16;;;;;;;3.50;1.20;;;;;;;;;;5110008;27;89015;-58
2023/04/17 05:46:46;;;;;;;2.47;1.37;;;;;;;;;;5117580;27;89239;-58
2023/04/17 05:49:14;;;;;;;1.40;1.10;;;;;;;;;;5108203;27;87035;-58
2023/04/17 05:51:42;;;;;;;1.50;1.40;;;;;;;;;;5120078;27;86180;-58
2023/04/17 05:54:10;;;;;;;2.50;1.57;;;;;;;;;;5107508;27;89163;-58
2023/04/17 05:56:39;;;;;;;2.97;1.30;;;;;;;;;;5127550;27;88701;-58
2023/04/17 05:59:07;;;;;;;1.83;1.20;;;;;;;;;;5111113;27;89199;-59
2023/04/17 06:01:35;;;;;;;1.80;1.63;;;;;;;;;;5103984;27;87060;-58
2023/04/17 06:04:05;;;;;;;1.93;1.50;;;;;;;;;;5113105;27;87993;-58
2023/04/17 06:06:34;;;;;;;1.43;1.27;;;;;;;;;;5110810;27;87887;-58
2023/04/17 06:09:04;;;;;;;1.87;1.20;;;;;;;;;;5126812;27;87044;-59
2023/04/17 06:11:32;;;;;;;2.17;1.30;;;;;;;;;;5108279;27;86950;-59
2023/04/17 06:14:01;;;;;;;2.70;1.50;;;;;;;;;;5106318;27;88922;-59
2023/04/17 06:16:29;;;;;;;1.70;1.10;;;;;;;;;;5123731;27;88854;-60
2023/04/17 06:18:57;;;;;;;2.00;1.50;;;;;;;;;;5126336;27;87801;-60
2023/04/17 06:21:27;;;;;;;1.37;1.27;;;;;;;;;;5121250;27;87057;-60
2023/04/17 06:23:56;;;;;;;4.77;1.67;;;;;;;;;;5105811;27;90398;-60
2023/04/17 06:26:24;;;;;;;1.63;1.30;;;;;;;;;;5122354;27;89798;-60
2023/04/17 06:28:53;;;;;;;1.93;1.77;;;;;;;;;;5126561;27;86979;-60
2023/04/17 06:31:21;;;;;;;1.37;1.27;;;;;;;;;;5111002;27;86839;-60
2023/04/17 06:33:50;;;;;;;2.63;1.33;;;;;;;;;;5109703;27;88201;-60
2023/04/17 06:36:18;;;;;;;2.03;1.23;;;;;;;;;;5125260;27;89000;-60
2023/04/17 06:38:48;;;;;;;1.80;1.57;;;;;;;;;;5107297;27;86711;-60
2023/04/17 06:41:16;;;;;;;1.07;0.97;;;;;;;;;;5108179;27;86292;-60
2023/04/17 06:43:44;;;;;;;2.90;1.43;;;;;;;;;;5105047;27;89361;-60
2023/04/17 06:46:13;;;;;;;1.60;1.50;;;;;;;;;;5117415;27;88504;-60
2023/04/17 06:48:41;;;;;;;2.27;1.40;;;;;;;;;;5126192;27;87811;-60
2023/04/17 06:51:09;;;;;;;1.27;1.17;;;;;;;;;;5110614;27;87161;-60
2023/04/17 06:53:38;;;;;;;1.77;1.17;;;;;;;;;;5089326;27;89469;-60
2023/04/17 06:56:07;;;;;;;1.40;1.27;;;;;;;;;;5092758;27;88874;-60
2023/04/17 06:58:42;;;;;;;1.90;1.40;;;;;;;;;;5117738;27;87019;-60
2023/04/17 07:01:11;;;;;;;4.23;1.83;;;;;;;;;;5112599;27;87048;-60
2023/04/17 07:03:39;;;;;;;1.63;1.37;;;;;;;;;;5105672;27;89090;-61
2023/04/17 07:06:08;;;;;;;2.53;1.60;;;;;;;;;;5094385;27;88774;-58
2023/04/17 07:08:36;;;;;;;1.37;1.27;;;;;;;;;;5094838;27;87004;-59
2023/04/17 07:11:05;;;;;;;2.17;1.67;;;;;;;;;;5103149;27;87641;-58
2023/04/17 07:13:34;;;;;;;1.20;1.07;;;;;;;;;;5107781;27;89977;-59
2023/04/17 07:16:02;;;;;;;2.20;1.63;;;;;;;;;;5086205;27;89676;-58
2023/04/17 07:18:31;;;;;;;3.57;1.67;;;;;;;;;;5093315;27;88427;-58
2023/04/17 07:21:00;;;;;;;1.43;1.33;;;;;;;;;;5094191;27;87654;-58
2023/04/17 07:23:28;;;;;;;2.20;1.67;;;;;;;;;;5085091;27;87862;-58
2023/04/17 07:25:56;;;;;;;2.50;1.30;;;;;;;;;;5105968;27;88772;-58
2023/04/17 07:28:24;;;;;;;1.67;1.13;;;;;;;;;;5095050;27;87072;-58
2023/04/17 07:30:56;;;;;;;1.03;1.03;;;;;;;;;;5103244;27;87073;-58
2023/04/17 07:33:25;;;;;;;2.20;1.33;;;;;;;;;;5104719;27;88704;-58
2023/04/17 07:35:53;;;;;;;1.50;1.07;;;;;;;;;;5108760;27;88800;-58
2023/04/17 07:38:21;;;;;;;1.23;1.13;;;;;;;;;;5103947;27;87885;-59
2023/04/17 07:40:50;;;;;;;1.87;1.57;;;;;;;;;;5104130;27;86852;-58
2023/04/17 07:43:18;;;;;;;1.23;1.13;;;;;;;;;;5104915;27;89088;-58
2023/04/17 07:45:47;;;;;;;1.10;1.00;;;;;;;;;;5104636;27;88829;-58
2023/04/17 07:48:19;;;;;;;1.80;1.00;;;;;;;;;;5104662;27;86717;-58
2023/04/17 07:50:47;;;;;;;2.47;1.53;;;;;;;;;;5104047;27;87033;-58
2023/04/17 07:53:15;;;;;;;1.53;1.27;;;;;;;;;;5104652;27;87873;-58
2023/04/17 07:55:43;;;;;;;2.10;1.40;;;;;;;;;;5103636;27;88808;-58
2023/04/17 07:58:12;;;;;;;1.67;1.40;;;;;;;;;;5118900;27;86898;-58
2023/04/17 08:00:41;;;;;;;1.53;1.30;;;;;;;;;;5125193;27;88291;-59
2023/04/17 08:03:09;;;;;;;1.53;1.30;;;;;;;;;;5111255;27;88902;-59
2023/04/17 08:05:39;;;;;;;1.37;1.23;;;;;;;;;;5106501;27;89635;-59
2023/04/17 08:08:08;;;;;;;2.50;1.67;;;;;;;;;;5125868;27;86901;-59
2023/04/17 08:10:36;;;;;;;1.10;1.00;;;;;;;;;;5098953;27;86992;-59
2023/04/17 08:13:04;;;;;;;1.67;1.30;;;;;;;;;;5107391;27;89262;-59
2023/04/17 08:15:32;;;;;;;3.77;2.23;;;;;;;;;;5124490;27;88956;-59
2023/04/17 08:18:01;;;;;;;2.07;1.10;;;;;;;;;;5113583;27;87052;-58
2023/04/17 08:20:29;;;;;;;2.40;1.17;;;;;;;;;;5108702;27;86093;-60
2023/04/17 08:22:59;;;;;;;1.50;1.40;;;;;;;;;;5123802;27;88834;-61
2023/04/17 08:25:27;;;;;;;3.80;1.77;;;;;;;;;;5124686;27;88847;-61
2023/04/17 08:27:55;;;;;;;2.93;1.87;;;;;;;;;;5108329;27;87969;-61
2023/04/17 08:30:24;;;;;;;1.67;1.30;;;;;;;;;;5124776;27;86939;-60
2023/04/17 08:32:54;;;;;;;1.90;1.73;;;;;;;;;;5116136;27;89111;-60
2023/04/17 08:35:22;;;;;;;3.00;1.60;;;;;;;;;;5105402;27;88707;-60
2023/04/17 08:37:51;;;;;;;8.40;1.80;;;;;;;;;;5118418;27;86842;-61
2023/04/17 08:40:22;;;;;;;3.67;1.50;;;;;;;;;;5111774;27;86995;-57
2023/04/17 08:42:51;;;;;;;3.40;1.00;;;;;;;;;;5105315;27;89039;-60
2023/04/17 08:45:19;;;;;;;2.07;1.87;;;;;;;;;;5098509;27;88809;-58
2023/04/17 08:47:48;;;;;;;1.73;1.60;;;;;;;;;;5102970;27;87114;-60
2023/04/17 08:50:16;;;;;;;2.37;1.33;;;;;;;;;;5112524;27;86976;-60
2023/04/17 08:52:45;;;;;;;1.67;1.57;;;;;;;;;;5097096;27;90091;-58
2023/04/17 08:55:14;;;;;;;1.47;1.03;;;;;;;;;;5104361;27;89762;-61
2023/04/17 08:57:56;;;;;;;2.87;1.20;;;;;;;;;;5124533;27;86877;-60
2023/04/17 09:00:25;;;;;;;1.93;1.20;;;;;;;;;;5110943;27;86888;-61
2023/04/17 09:02:53;;;;;;;2.00;1.80;;;;;;;;;;5092333;27;88107;-58
2023/04/17 09:05:22;;;;;;;2.03;1.80;;;;;;;;;;5082114;27;88841;-60
2023/04/17 09:07:50;;;;;;;2.60;1.70;;;;;;;;;;5083086;27;87099;-59
2023/04/17 09:10:19;;;;;;;1.80;1.57;;;;;;;;;;5083053;27;86362;-59
2023/04/17 09:13:00;;;;;;;2.33;1.23;;;;;;;;;;5096316;27;89357;-59
2023/04/17 09:15:29;;;;;;;2.27;1.63;;;;;;;;;;5103066;27;89340;-59
2023/04/17 09:17:57;;;;;;;1.37;1.10;;;;;;;;;;5102436;27;88018;-61
2023/04/17 09:20:26;;;;;;;1.40;1.03;;;;;;;;;;5087842;27;87038;-61
2023/04/17 09:23:04;;;;;;;2.00;1.20;;;;;;;;;;5082632;27;89492;-60
2023/04/17 09:25:32;;;;;;;3.70;1.57;;;;;;;;;;5082703;27;88880;-60
2023/04/17 09:28:14;;;;;;;1.27;1.00;;;;;;;;;;5082535;27;87054;-60
2023/04/17 09:30:43;;;;;;;1.47;1.30;;;;;;;;;;5082405;27;87055;-61
2023/04/17 09:33:11;;;;;;;4.23;1.63;;;;;;;;;;5082530;27;89088;-59
2023/04/17 09:35:40;;;;;;;5.87;0.90;;;;;;;;;;5082668;27;88874;-59
2023/04/17 09:38:08;;;;;;;2.03;1.17;;;;;;;;;;5082224;27;87021;-59
2023/04/17 09:40:37;;;;;;;1.53;1.10;;;;;;;;;;5081763;27;87022;-59
2023/04/17 09:43:05;;;;;;;2.07;1.27;;;;;;;;;;5082428;27;90069;-60
2023/04/17 09:45:40;;;;;;;4.37;1.07;;;;;;;;;;5081887;27;89831;-59
2023/04/17 09:48:10;;;;;;;5.67;2.03;;;;;;;;;;5092202;27;87145;-59
2023/04/17 09:50:38;;;;;;;2.50;1.17;;;;;;;;;;5123396;27;87031;-60
2023/04/17 09:53:07;;;;;;;1.37;1.27;;;;;;;;;;5117581;27;87938;-60
2023/04/17 09:55:36;;;;;;;1.40;1.07;;;;;;;;;;5102553;27;88857;-59
2023/04/17 09:58:06;;;;;;;1.47;1.10;;;;;;;;;;5102682;27;87037;-59
2023/04/17 10:00:35;;;;;;;1.37;0.90;;;;;;;;;;5103025;27;86283;-60
2023/04/17 10:03:05;;;;;;;4.40;1.43;;;;;;;;;;5110450;27;89115;-59
2023/04/17 10:05:34;;;;;;;4.53;1.40;;;;;;;;;;5098762;27;89670;-59
2023/04/17 10:08:03;;;;;;;1.40;1.30;;;;;;;;;;5095757;27;87950;-59
2023/04/17 10:10:32;;;;;;;1.20;1.10;;;;;;;;;;5102821;27;87075;-59
2023/04/17 10:13:02;;;;;;;1.80;1.47;;;;;;;;;;5110753;27;89022;-60
2023/04/17 10:15:30;;;;;;;2.13;1.60;;;;;;;;;;5123595;27;89085;-60
2023/04/17 10:18:13;;;;;;;5.03;1.50;;;;;;;;;;5118109;27;87119;-58
2023/04/17 10:20:43;;;;;;;2.67;1.30;;;;;;;;;;5125476;27;87107;-59
2023/04/17 10:23:30;;;;;;;4.40;1.80;;;;;;;;;;5113993;27;89366;-59
2023/04/17 10:26:18;;;;;;;3.73;1.83;;;;;;;;;;5090373;27;88841;-59
2023/04/17 10:28:49;;;;;;;4.73;1.57;;;;;;;;;;5100433;27;87044;-61
2023/04/17 10:31:17;;;;;;;7.93;2.03;;;;;;;;;;5121830;27;87063;-61
2023/04/17 10:33:49;;;;;;;3.27;2.13;;;;;;;;;;5124736;27;90053;-61
2023/04/17 10:36:32;;;;;;;1.33;1.20;;;;;;;;;;5126388;27;89579;-61
2023/04/17 10:39:13;;;;;;;4.50;1.90;;;;;;;;;;5126139;27;87095;-61
2023/04/17 10:41:56;;;;;;;3.23;2.20;;;;;;;;;;5126255;27;87170;-61
2023/04/17 10:44:25;;;;;;;2.03;1.77;;;;;;;;;;5125635;27;88926;-61
2023/04/17 10:46:53;;;;;;;3.33;1.63;;;;;;;;;;5125552;27;88686;-60
2023/04/17 10:49:22;;;;;;;2.60;1.83;;;;;;;;;;5126090;27;87027;-60
2023/04/17 10:51:51;;;;;;;2.90;1.87;;;;;;;;;;5126502;27;86223;-60
2023/04/17 10:54:20;;;;;;;4.70;1.77;;;;;;;;;;5125830;27;89147;-60
2023/04/17 10:56:49;;;;;;;3.37;1.50;;;;;;;;;;5126535;27;88974;-60
2023/04/17 10:59:17;;;;;;;2.67;1.50;;;;;;;;;;5125992;27;87989;-60
2023/04/17 11:02:02;;;;;;;1.83;1.30;;;;;;;;;;5126378;27;87005;-61
2023/04/17 11:04:32;;;;;;;2.60;1.73;;;;;;;;;;5125874;27;88963;-61
2023/04/17 11:07:01;;;;;;;4.73;1.67;;;;;;;;;;5125705;27;89274;-60
2023/04/17 11:09:31;;;;;;;2.20;1.53;;;;;;;;;;5126394;27;87029;-60
2023/04/17 11:12:00;;;;;;;3.23;1.57;;;;;;;;;;5126135;27;86912;-60
2023/04/17 11:14:29;;;;;;;2.40;1.90;;;;;;;;;;5126368;27;92219;-60
2023/04/17 11:16:57;;;;;;;2.70;1.80;;;;;;;;;;5125910;27;90463;-60
2023/04/17 11:19:26;;;;;;;2.50;1.60;;;;;;;;;;5125991;27;86963;-60
2023/04/17 11:21:56;;;;;;;3.47;1.73;;;;;;;;;;5125969;27;87153;-60
2023/04/17 11:24:24;;;;;;;1.77;1.50;;;;;;;;;;5124847;27;90067;-60
2023/04/17 11:26:55;;;;;;;1.73;1.50;;;;;;;;;;5125529;27;89928;-60
2023/04/17 11:29:24;;;;;;;2.70;1.57;;;;;;;;;;5125299;27;86784;-60
2023/04/17 11:31:52;;;;;;;2.10;1.50;;;;;;;;;;5125702;27;88217;-60
2023/04/17 11:34:21;;;;;;;1.87;1.67;;;;;;;;;;5125823;27;89166;-60
2023/04/17 11:36:49;;;;;;;2.03;1.57;;;;;;;;;;5125408;27;88828;-60
2023/04/17 11:39:18;;;;;;;2.40;1.50;;;;;;;;;;5125825;27;87033;-60
2023/04/17 11:41:47;;;;;;;2.43;1.47;;;;;;;;;;5125771;27;86464;-60
2023/04/17 11:44:17;;;;;;;1.90;1.60;;;;;;;;;;5125290;27;89083;-60
2023/04/17 11:46:49;;;;;;;3.07;1.57;;;;;;;;;;5124773;27;88870;-60
2023/04/17 11:49:17;;;;;;;3.50;1.83;;;;;;;;;;5124994;27;88000;-60
2023/04/17 11:51:46;;;;;;;2.57;2.27;;;;;;;;;;5124983;27;87006;-60
2023/04/17 11:54:20;;;;;;;1.87;1.53;;;;;;;;;;5125082;27;89152;-60
2023/04/17 11:56:58;;;;;;;2.20;1.40;;;;;;;;;;5124493;27;88840;-60
2023/04/17 11:59:31;;;;;;;3.13;1.80;;;;;;;;;;5125413;27;86963;-60
2023/04/17 12:02:00;;;;;;;2.93;1.80;;;;;;;;;;5124974;27;86929;-60
2023/04/17 12:04:32;;;;;;;3.07;1.90;;;;;;;;;;5124818;27;89177;-60
2023/04/17 12:07:01;;;;;;;2.70;1.63;;;;;;;;;;5124985;27;88860;-60
2023/04/17 12:09:31;;;;;;;3.10;1.87;;;;;;;;;;5125431;27;87664;-60
2023/04/17 12:12:00;;;;;;;1.57;1.40;;;;;;;;;;5124834;27;87030;-60
2023/04/17 12:14:28;;;;;;;2.00;1.37;;;;;;;;;;5124350;27;88791;-60
2023/04/17 12:16:58;;;;;;;2.53;1.80;;;;;;;;;;5124227;27;89186;-61
2023/04/17 12:19:28;;;;;;;1.87;1.60;;;;;;;;;;5124927;27;87025;-60
2023/04/17 12:21:57;;;;;;;1.53;1.33;;;;;;;;;;5124811;27;86934;-60
2023/04/17 12:24:26;;;;;;;1.80;1.67;;;;;;;;;;5124499;27;89383;-60
2023/04/17 12:26:55;;;;;;;2.13;1.80;;;;;;;;;;5124410;27;88757;-60
2023/04/17 12:29:23;;;;;;;2.17;1.73;;;;;;;;;;5124881;27;86992;-60
2023/04/17 12:32:12;;;;;;;2.03;1.17;;;;;;;;;;5125092;27;86300;-60
2023/04/17 12:34:40;;;;;;;2.57;1.60;;;;;;;;;;5124490;27;88996;-60
2023/04/17 12:37:08;;;;;;;1.90;1.50;;;;;;;;;;5124425;27;88869;-60
2023/04/17 12:39:37;;;;;;;2.57;1.87;;;;;;;;;;5124363;27;87895;-60
2023/04/17 12:42:05;;;;;;;1.97;1.57;;;;;;;;;;5124142;27;86838;-60
2023/04/17 12:44:33;;;;;;;2.30;1.73;;;;;;;;;;5124462;27;87950;-60
2023/04/17 12:47:02;;;;;;;3.00;2.10;;;;;;;;;;5124292;27;89089;-60
2023/04/17 12:49:31;;;;;;;2.77;1.80;;;;;;;;;;5125020;27;87029;-60
2023/04/17 12:52:00;;;;;;;1.53;1.43;;;;;;;;;;5124759;27;86754;-60
2023/04/17 12:54:31;;;;;;;3.07;1.90;;;;;;;;;;5124112;27;89209;-59
2023/04/17 12:57:00;;;;;;;1.60;1.30;;;;;;;;;;5124836;27;88813;-59
2023/04/17 12:59:28;;;;;;;1.80;1.43;;;;;;;;;;5124419;27;87017;-60
2023/04/17 13:01:57;;;;;;;1.73;1.17;;;;;;;;;;5124689;27;87111;-60
2023/04/17 13:04:25;;;;;;;2.00;1.50;;;;;;;;;;5123768;27;90016;-60
2023/04/17 13:06:55;;;;;;;3.10;1.90;;;;;;;;;;5123877;27;89907;-60
2023/04/17 13:09:23;;;;;;;3.17;1.27;;;;;;;;;;5124278;27;87671;-60
2023/04/17 13:11:51;;;;;;;1.30;1.17;;;;;;;;;;5124182;27;86921;-61
2023/04/17 13:14:20;;;;;;;3.27;1.47;;;;;;;;;;5124005;27;89231;-60
2023/04/17 13:16:49;;;;;;;1.80;1.60;;;;;;;;;;5123870;27;88766;-60
2023/04/17 13:19:18;;;;;;;1.93;1.70;;;;;;;;;;5124480;27;87048;-60
2023/04/17 13:21:47;;;;;;;1.80;1.40;;;;;;;;;;5124209;27;86468;-60
2023/04/17 13:24:16;;;;;;;1.93;1.50;;;;;;;;;;5123889;27;89279;-60
2023/04/17 13:26:45;;;;;;;3.30;1.80;;;;;;;;;;5123873;27;89000;-60
2023/04/17 13:29:13;;;;;;;1.73;1.63;;;;;;;;;;5123707;27;88016;-59
2023/04/17 13:31:45;;;;;;;2.30;1.60;;;;;;;;;;5123960;27;86909;-60
2023/04/17 13:34:14;;;;;;;2.43;1.73;;;;;;;;;;5124233;27;89109;-60
2023/04/17 13:36:43;;;;;;;1.60;1.23;;;;;;;;;;5123828;27;88698;-60
2023/04/17 13:39:12;;;;;;;1.50;1.40;;;;;;;;;;5123978;27;86893;-60
2023/04/17 13:41:42;;;;;;;2.57;1.70;;;;;;;;;;5123440;27;86957;-60
2023/04/17 13:44:11;;;;;;;1.77;1.53;;;;;;;;;;5123708;27;89275;-60
2023/04/17 13:46:39;;;;;;;1.93;1.20;;;;;;;;;;5124108;27;88927;-60
2023/04/17 13:49:07;;;;;;;1.27;1.07;;;;;;;;;;5123624;27;87112;-60
2023/04/17 13:51:36;;;;;;;1.60;1.33;;;;;;;;;;5123365;27;87042;-60
2023/04/17 13:54:05;;;;;;;2.17;1.97;;;;;;;;;;5125667;27;89820;-60
2023/04/17 13:56:33;;;;;;;1.47;1.37;;;;;;;;;;5126889;27;89407;-60
2023/04/17 13:59:03;;;;;;;2.00;1.47;;;;;;;;;;5127467;27;86739;-60
2023/04/17 14:01:31;;;;;;;2.93;1.47;;;;;;;;;;5127206;27;86992;-60
2023/04/17 14:04:00;;;;;;;1.37;1.20;;;;;;;;;;5126749;27;89161;-60
2023/04/17 14:06:28;;;;;;;1.03;0.93;;;;;;;;;;5126627;27;88827;-60
2023/04/17 14:08:57;;;;;;;3.27;2.17;;;;;;;;;;5127002;27;87054;-60
2023/04/17 14:11:25;;;;;;;2.27;1.80;;;;;;;;;;5127206;27;86066;-60
2023/04/17 14:13:53;;;;;;;1.40;1.30;;;;;;;;;;5127174;27;89209;-60
2023/04/17 14:16:23;;;;;;;1.60;1.17;;;;;;;;;;5126842;27;88920;-59
2023/04/17 14:18:51;;;;;;;1.70;1.40;;;;;;;;;;5126346;27;87990;-60
2023/04/17 14:21:21;;;;;;;1.37;1.27;;;;;;;;;;5127833;27;86788;-60
2023/04/17 14:23:50;;;;;;;1.70;1.07;;;;;;;;;;5126154;27;89049;-59
2023/04/17 14:26:18;;;;;;;1.97;1.77;;;;;;;;;;5126182;27;88747;-59
2023/04/17 14:28:47;;;;;;;2.50;1.50;;;;;;;;;;5127334;27;86968;-59
2023/04/17 14:31:15;;;;;;;1.40;1.30;;;;;;;;;;5126956;27;86918;-60
2023/04/17 14:33:45;;;;;;;1.17;1.10;;;;;;;;;;5126579;27;87828;-59
2023/04/17 14:36:13;;;;;;;2.17;1.60;;;;;;;;;;5126600;27;88845;-60
2023/04/17 14:38:41;;;;;;;1.57;1.40;;;;;;;;;;5126533;27;86922;-60
2023/04/17 14:41:09;;;;;;;3.03;1.43;;;;;;;;;;5126036;27;87094;-60
2023/04/17 14:43:38;;;;;;;2.43;1.50;;;;;;;;;;5126086;27;89956;-60
2023/04/17 14:46:06;;;;;;;1.33;1.23;;;;;;;;;;5126094;27;89755;-60
2023/04/17 14:48:34;;;;;;;2.20;1.50;;;;;;;;;;5126268;27;86760;-60
2023/04/17 14:51:20;;;;;;;3.13;1.43;;;;;;;;;;5126391;27;87050;-59
2023/04/17 14:53:49;;;;;;;2.30;1.60;;;;;;;;;;5126386;27;89330;-61
2023/04/17 14:56:17;;;;;;;2.30;1.30;;;;;;;;;;5126521;27;88900;-61